ADDS METAR Data INFO
IDs: Format: Raw Decoded Include TAF

Data at: 0159 UTC 17 Oct 2017

KWJF 170156Z 00000KT 10SM CLR 23/M14 A3014 RMK AO2 SLP202 T02281139
KWJF 170056Z 04004KT 10SM CLR 27/M14 A3013 RMK AO2 SLP196 T02721144
KWJF 162356Z 09004KT 10SM CLR 28/M14 A3014 RMK AO2 SLP199 T02831144 10294 20206 56015
KWJF 162256Z VRB05KT 10SM CLR 29/M15 A3015 RMK AO2 SLP202 T02891150
KWJF 162156Z 11004KT 10SM CLR 29/M14 A3017 RMK AO2 SLP206 T02891144
KWJF 162056Z VRB03KT 10SM CLR 28/M14 A3019 RMK AO2 SLP213 T02781144 58028
KWJF 161956Z 10003KT 10SM CLR 26/M15 A3022 RMK AO2 SLP227 T02611150
KWJF 161856Z VRB03KT 10SM CLR 24/M16 A3025 RMK AO2 SLP237 T02391156
KWJF 161756Z 00000KT 10SM CLR 21/M15 A3028 RMK AO2 SLP248 T02061150 10206 20039 50002
KWJF 161656Z 00000KT 10SM CLR 14/M13 A3029 RMK AO2 SLP256 T01441133
KWJF 161556Z 00000KT 9SM CLR 09/M13 A3029 RMK AO2 SLP259 T00891128
KWJF 161456Z 00000KT 10SM CLR 07/M14 A3027 RMK AO2 SLP251 T00671144 53009
KWJF 161356Z AUTO 00000KT 10SM CLR 05/M14 A3026 RMK AO2 SLP246 T00501139
KWJF 161256Z AUTO 24003KT 10SM CLR 06/M14 A3025 RMK AO2 SLP239 T00611139
KWJF 161156Z AUTO 00000KT 10SM CLR 06/M15 A3024 RMK AO2 SLP235 T00561150 10111 20044 55004
KWJF 161056Z AUTO 29004KT 10SM CLR 06/M15 A3024 RMK AO2 SLP233 T00561150
KWJF 160956Z AUTO 26007KT 10SM CLR 07/M15 A3025 RMK AO2 SLP237 T00721150
KWJF 160856Z AUTO 28004KT 10SM CLR 08/M16 A3025 RMK AO2 SLP238 T00831156 53002
KWJF 160756Z AUTO 27005KT 10SM CLR 08/M15 A3025 RMK AO2 SLP237 T00831150 402720033
KWJF 160656Z AUTO 26006KT 10SM CLR 10/M15 A3025 RMK AO2 SLP237 T01001150
KWJF 160556Z AUTO 27005KT 10SM CLR 10/M16 A3025 RMK AO2 SLP238 T01001156 10272 20094 51011
KWJF 160456Z AUTO 29005KT 10SM CLR 11/M16 A3024 RMK AO2 SLP239 T01061161
KWJF 160356Z 29006KT 10SM CLR 12/M15 A3022 RMK AO2 SLP235 T01221150
KWJF 160256Z 23003KT 10SM CLR 17/M15 A3021 RMK AO2 SLP232 T01721150 53007
KWJF 160156Z 05003KT 10SM CLR 21/M16 A3019 RMK AO2 SLP225 T02061161
KWJF 160056Z 05006KT 10SM CLR 25/M17 A3019 RMK AO2 SLP218 T02501167
KWJF 152356Z 07008KT 10SM CLR 27/M17 A3019 RMK AO2 SLP216 T02671172 10272 20200 56015
KWJF 152256Z 05011KT 10SM CLR 27/M17 A3020 RMK AO2 SLP220 T02721167
KWJF 152156Z VRB06KT 10SM CLR 27/M16 A3021 RMK AO2 SLP225 T02671161
KWJF 152056Z 05011G16KT 10SM CLR 26/M16 A3023 RMK AO2 SLP232 T02611156 58024
KWJF 151956Z 07010KT 10SM CLR 25/M14 A3027 RMK AO2 SLP246 T02501144
KWJF 151856Z 07006KT 10SM CLR 23/M14 A3030 RMK AO2 SLP254 T02331139
KWJF 151756Z 00000KT 10SM CLR 19/M11 A3031 RMK AO2 SLP260 T01941111 10194 20033 50004
KWJF 151656Z 00000KT 10SM CLR 16/M11 A3032 RMK AO2 SLP265 T01561111
KWJF 151556Z 00000KT 10SM CLR 11/M11 A3031 RMK AO2 SLP265 T01061106
KWJF 151456Z 00000KT 10SM CLR 05/M11 A3030 RMK AO2 SLP261 T00501111 53018